Mercator — FGG9060 — position and weather

sailwx.info

Track history (hours):
 
Tides and Currents Weather Stations Pressure Air Temp Water Temp Dewpoint Dewpoint Depression Visibility Wind Speed Wind Dir Waves Ship Positions

Mercator

Last reported at 2017-Aug-31 12:48 UTC. Time now 2017-Sep-19 22:39 UTC.
Position N 47°48' W 004°03'.
Warning: this ship's position is 19 days out of date.

Length 17 m; draft 2 m.

Type: Other ship. MMSI: 227060690.

Date/timePositionNaut miles runAvg speedWind from/ knotsBaromVisibWave heightAir tempDewpointWater temp
2017-Aug-31 12:48N 47°48' W 004°03'5 5.1
2017-Aug-31 11:48N 47°44' W 003°60'12 3.7
2017-Aug-31 08:42N 47°43' W 003°43'2 8.6
2017-Aug-31 08:29N 47°43' W 003°40'4 8.5
2017-Aug-31 08:00N 47°41' W 003°34'4 8.2
2017-Aug-31 07:30N 47°40' W 003°29'2 3.1
2017-Aug-31 07:00N 47°39' W 003°27'0 0.0
2017-Aug-31 06:30N 47°39' W 003°27'0 0.0
2017-Aug-31 06:00N 47°39' W 003°27'0 0.0
2017-Aug-31 05:30N 47°39' W 003°27'0 0.0
2017-Aug-31 04:59N 47°39' W 003°27'0 0.0
2017-Aug-31 04:29N 47°39' W 003°27'0 0.0
2017-Aug-31 03:59N 47°39' W 003°27'0 0.0
2017-Aug-31 03:29N 47°39' W 003°27'0 0.0
2017-Aug-31 02:59N 47°39' W 003°27'0 0.0
2017-Aug-31 02:30N 47°39' W 003°27'0 0.0
2017-Aug-31 02:00N 47°39' W 003°27'0 0.0
2017-Aug-31 01:28N 47°39' W 003°27'0 0.0
2017-Aug-31 01:00N 47°39' W 003°27'0 0.0
2017-Aug-31 00:30N 47°39' W 003°27'0 0.0
2017-Aug-31 00:00N 47°39' W 003°27'0 0.0
2017-Aug-30 23:30N 47°39' W 003°27'0 0.0
2017-Aug-30 22:57N 47°39' W 003°27'0 0.0
2017-Aug-30 22:30N 47°39' W 003°27'0 0.0
2017-Aug-30 22:00N 47°39' W 003°27'0 0.0
2017-Aug-30 21:30N 47°39' W 003°27'0 0.0
2017-Aug-30 21:00N 47°39' W 003°27'0 0.0
2017-Aug-30 20:30N 47°39' W 003°27'0 0.0
2017-Aug-30 20:00N 47°39' W 003°27'0 0.0
2017-Aug-30 19:29N 47°39' W 003°27'0 0.0
2017-Aug-30 19:00N 47°39' W 003°27'0 0.0
2017-Aug-30 18:30N 47°39' W 003°27'0 0.0
2017-Aug-30 17:58N 47°39' W 003°27'0 0.0
2017-Aug-30 17:28N 47°39' W 003°27'0 0.0
2017-Aug-30 16:58N 47°39' W 003°27'0 0.0
2017-Aug-30 16:28N 47°39' W 003°27'0 0.0
2017-Aug-30 15:58N 47°39' W 003°27'0 0.0
2017-Aug-30 15:30N 47°39' W 003°27'0 0.0
2017-Aug-30 15:00N 47°39' W 003°27'0 0.0
2017-Aug-30 14:30N 47°39' W 003°27'0 0.0
2017-Aug-30 14:00N 47°39' W 003°27'0 0.0
2017-Aug-30 13:30N 47°39' W 003°27'0 0.0
2017-Aug-30 12:58N 47°39' W 003°27'0 0.0
2017-Aug-30 12:28N 47°39' W 003°27'0 0.0
2017-Aug-30 11:57N 47°39' W 003°27'0 0.0
2017-Aug-30 11:30N 47°39' W 003°27'0 0.0
2017-Aug-30 11:00N 47°39' W 003°27'0 0.0
2017-Aug-30 10:27N 47°39' W 003°27'0 0.0
2017-Aug-30 10:00N 47°39' W 003°27'0 0.0
2017-Aug-30 09:29N 47°39' W 003°27'0 0.0
2017-Aug-30 08:59N 47°39' W 003°27'0 0.0
2017-Aug-30 08:30N 47°39' W 003°27'0 0.0
2017-Aug-30 07:58N 47°39' W 003°27'0 0.0
2017-Aug-30 07:28N 47°39' W 003°27'0 0.0
2017-Aug-30 06:58N 47°39' W 003°27'0 0.0
2017-Aug-30 06:28N 47°39' W 003°27'0 0.0
2017-Aug-30 05:53N 47°39' W 003°27'0 0.0
2017-Aug-30 05:29N 47°39' W 003°27'0 0.0
2017-Aug-30 04:59N 47°39' W 003°27'0 0.0
2017-Aug-30 04:29N 47°39' W 003°27'0 0.0
2017-Aug-30 03:59N 47°39' W 003°27'0 0.0
2017-Aug-30 03:29N 47°39' W 003°27'0 0.0
2017-Aug-30 02:59N 47°39' W 003°27'0 0.0
2017-Aug-30 02:29N 47°39' W 003°27'0 0.0
2017-Aug-30 01:59N 47°39' W 003°27'0 0.0
2017-Aug-30 01:30N 47°39' W 003°27'0 0.0
2017-Aug-30 01:00N 47°39' W 003°27'0 0.0
2017-Aug-30 00:30N 47°39' W 003°27'0 0.0
2017-Aug-30 00:00N 47°39' W 003°27'0 0.0
2017-Aug-29 23:29N 47°39' W 003°27'0 0.0
2017-Aug-29 22:59N 47°39' W 003°27'0 0.0
2017-Aug-29 22:29N 47°39' W 003°27'0 0.0
2017-Aug-29 21:53N 47°39' W 003°27'0 0.0
2017-Aug-29 21:18N 47°39' W 003°27'0 0.0
2017-Aug-29 20:56N 47°39' W 003°27'0 0.0
2017-Aug-29 20:29N 47°39' W 003°27'0 0.0
2017-Aug-29 19:56N 47°39' W 003°27'0 0.0
2017-Aug-29 19:29N 47°39' W 003°27'0 0.0
2017-Aug-29 18:59N 47°39' W 003°27'0 0.0
2017-Aug-29 18:29N 47°39' W 003°27'0 0.0
2017-Aug-29 18:00N 47°39' W 003°27'0 0.0
2017-Aug-29 17:30N 47°39' W 003°27'0 0.0
2017-Aug-29 17:00N 47°39' W 003°27'0 0.0
2017-Aug-29 16:29N 47°39' W 003°27'0 0.0
2017-Aug-29 15:59N 47°39' W 003°27'0 0.0
2017-Aug-29 15:29N 47°39' W 003°27'0 0.0
2017-Aug-29 14:59N 47°39' W 003°27'0 0.0
2017-Aug-29 14:29N 47°39' W 003°27'0 0.0
2017-Aug-29 13:59N 47°39' W 003°27'0 0.0
2017-Aug-29 13:29N 47°39' W 003°27'0 0.0
2017-Aug-29 12:58N 47°39' W 003°27'0 0.0
2017-Aug-29 12:30N 47°39' W 003°27'0 0.0
2017-Aug-29 12:00N 47°39' W 003°27'1 2.4
2017-Aug-29 11:30N 47°39' W 003°28'2 4.4
2017-Aug-29 11:00N 47°40' W 003°31'3 5.5
2017-Aug-29 10:30N 47°42' W 003°35'4 7.5
2017-Aug-29 10:00N 47°43' W 003°39'4 8.2
2017-Aug-29 09:30N 47°46' W 003°45'11 0.7
2017-Aug-28 17:10N 47°52' W 003°59'0 0.0
2017-Aug-28 16:57N 47°52' W 003°59'0 0.0
2017-Aug-28 16:30N 47°52' W 003°59'  
2017-Aug-25 01:48N 47°52' W 003°59'0 0.0
2017-Aug-25 01:30N 47°52' W 003°59'0 0.0
2017-Aug-25 00:48N 47°52' W 003°59'0 0.0
2017-Aug-25 00:27N 47°52' W 003°59'0 0.0
2017-Aug-24 23:48N 47°52' W 003°59'2 0.2
2017-Aug-24 14:34N 47°50' W 003°59'15 8.0
2017-Aug-24 12:38N 47°46' W 004°21'14 7.5
2017-Aug-24 10:50N 47°56' W 004°36'3 7.9
2017-Aug-24 10:28N 47°58' W 004°39'6 7.8
2017-Aug-24 09:45N 48°01' W 004°45'2 8.1
2017-Aug-24 09:30N 48°03' W 004°46'5 9.3
2017-Aug-24 09:00N 48°08' W 004°44'5 9.1
2017-Aug-24 08:31N 48°12' W 004°41'4 8.8
2017-Aug-24 08:01N 48°16' W 004°38'5 9.2
2017-Aug-24 07:31N 48°20' W 004°35'4 8.7
2017-Aug-24 07:01N 48°23' W 004°30'0 0.0
2017-Aug-23 12:12N 48°23' W 004°29'0 0.1
2017-Aug-23 12:01N 48°23' W 004°29'2 4.5
2017-Aug-23 11:30N 48°23' W 004°26'2 4.6
2017-Aug-23 11:01N 48°22' W 004°29'4 8.4
2017-Aug-23 10:31N 48°20' W 004°35'3 6.9
2017-Aug-23 10:01N 48°19' W 004°40'4 7.6
2017-Aug-23 09:31N 48°19' W 004°45'5 9.4
2017-Aug-23 09:00N 48°23' W 004°49'5 9.7
2017-Aug-23 08:31N 48°28' W 004°50'5 9.6
2017-Aug-23 08:01N 48°33' W 004°48'5 9.4
2017-Aug-23 07:31N 48°36' W 004°44'6 0.4
2017-Aug-22 14:39N 48°36' W 004°35'1 8.2
2017-Aug-22 14:29N 48°37' W 004°36'2 5.1
2017-Aug-22 14:00N 48°39' W 004°36'39 9.2
2017-Aug-22 09:48N 48°50' W 003°39'311.7
2017-Aug-22 09:30N 48°51' W 003°34'611.5
2017-Aug-22 09:00N 48°52' W 003°25'15 0.7
2017-Aug-21 13:07N 48°50' W 003°03'  
Track history (hours):
 
Tides and Currents Weather Stations Pressure Air Temp Water Temp Dewpoint Dewpoint Depression Visibility Wind Speed Wind Dir Waves Ship Positions

Mercator

Last reported at 2017-Aug-31 12:48 UTC. Time now 2017-Sep-19 22:39 UTC.
Position N 47°48' W 004°03'.
Warning: this ship's position is 19 days out of date.

Length 17 m; draft 2 m.

Type: Other ship. MMSI: 227060690.

Date/timePositionNaut miles runAvg speedWind from/ knotsBaromVisibWave heightAir tempDewpointWater temp
2017-Aug-31 12:48N 47°48' W 004°03'5 5.1
2017-Aug-31 11:48N 47°44' W 003°60'12 3.7
2017-Aug-31 08:42N 47°43' W 003°43'2 8.6
2017-Aug-31 08:29N 47°43' W 003°40'4 8.5
2017-Aug-31 08:00N 47°41' W 003°34'4 8.2
2017-Aug-31 07:30N 47°40' W 003°29'2 3.1
2017-Aug-31 07:00N 47°39' W 003°27'0 0.0
2017-Aug-31 06:30N 47°39' W 003°27'0 0.0
2017-Aug-31 06:00N 47°39' W 003°27'0 0.0
2017-Aug-31 05:30N 47°39' W 003°27'0 0.0
2017-Aug-31 04:59N 47°39' W 003°27'0 0.0
2017-Aug-31 04:29N 47°39' W 003°27'0 0.0
2017-Aug-31 03:59N 47°39' W 003°27'0 0.0
2017-Aug-31 03:29N 47°39' W 003°27'0 0.0
2017-Aug-31 02:59N 47°39' W 003°27'0 0.0
2017-Aug-31 02:30N 47°39' W 003°27'0 0.0
2017-Aug-31 02:00N 47°39' W 003°27'0 0.0
2017-Aug-31 01:28N 47°39' W 003°27'0 0.0
2017-Aug-31 01:00N 47°39' W 003°27'0 0.0
2017-Aug-31 00:30N 47°39' W 003°27'0 0.0
2017-Aug-31 00:00N 47°39' W 003°27'0 0.0
2017-Aug-30 23:30N 47°39' W 003°27'0 0.0
2017-Aug-30 22:57N 47°39' W 003°27'0 0.0
2017-Aug-30 22:30N 47°39' W 003°27'0 0.0
2017-Aug-30 22:00N 47°39' W 003°27'0 0.0
2017-Aug-30 21:30N 47°39' W 003°27'0 0.0
2017-Aug-30 21:00N 47°39' W 003°27'0 0.0
2017-Aug-30 20:30N 47°39' W 003°27'0 0.0
2017-Aug-30 20:00N 47°39' W 003°27'0 0.0
2017-Aug-30 19:29N 47°39' W 003°27'0 0.0
2017-Aug-30 19:00N 47°39' W 003°27'0 0.0
2017-Aug-30 18:30N 47°39' W 003°27'0 0.0
2017-Aug-30 17:58N 47°39' W 003°27'0 0.0
2017-Aug-30 17:28N 47°39' W 003°27'0 0.0
2017-Aug-30 16:58N 47°39' W 003°27'0 0.0
2017-Aug-30 16:28N 47°39' W 003°27'0 0.0
2017-Aug-30 15:58N 47°39' W 003°27'0 0.0
2017-Aug-30 15:30N 47°39' W 003°27'0 0.0
2017-Aug-30 15:00N 47°39' W 003°27'0 0.0
2017-Aug-30 14:30N 47°39' W 003°27'0 0.0
2017-Aug-30 14:00N 47°39' W 003°27'0 0.0
2017-Aug-30 13:30N 47°39' W 003°27'0 0.0
2017-Aug-30 12:58N 47°39' W 003°27'0 0.0
2017-Aug-30 12:28N 47°39' W 003°27'0 0.0
2017-Aug-30 11:57N 47°39' W 003°27'0 0.0
2017-Aug-30 11:30N 47°39' W 003°27'0 0.0
2017-Aug-30 11:00N 47°39' W 003°27'0 0.0
2017-Aug-30 10:27N 47°39' W 003°27'0 0.0
2017-Aug-30 10:00N 47°39' W 003°27'0 0.0
2017-Aug-30 09:29N 47°39' W 003°27'0 0.0
2017-Aug-30 08:59N 47°39' W 003°27'0 0.0
2017-Aug-30 08:30N 47°39' W 003°27'0 0.0
2017-Aug-30 07:58N 47°39' W 003°27'0 0.0
2017-Aug-30 07:28N 47°39' W 003°27'0 0.0
2017-Aug-30 06:58N 47°39' W 003°27'0 0.0
2017-Aug-30 06:28N 47°39' W 003°27'0 0.0
2017-Aug-30 05:53N 47°39' W 003°27'0 0.0
2017-Aug-30 05:29N 47°39' W 003°27'0 0.0
2017-Aug-30 04:59N 47°39' W 003°27'0 0.0
2017-Aug-30 04:29N 47°39' W 003°27'0 0.0
2017-Aug-30 03:59N 47°39' W 003°27'0 0.0
2017-Aug-30 03:29N 47°39' W 003°27'0 0.0
2017-Aug-30 02:59N 47°39' W 003°27'0 0.0
2017-Aug-30 02:29N 47°39' W 003°27'0 0.0
2017-Aug-30 01:59N 47°39' W 003°27'0 0.0
2017-Aug-30 01:30N 47°39' W 003°27'0 0.0
2017-Aug-30 01:00N 47°39' W 003°27'0 0.0
2017-Aug-30 00:30N 47°39' W 003°27'0 0.0
2017-Aug-30 00:00N 47°39' W 003°27'0 0.0
2017-Aug-29 23:29N 47°39' W 003°27'0 0.0
2017-Aug-29 22:59N 47°39' W 003°27'0 0.0
2017-Aug-29 22:29N 47°39' W 003°27'0 0.0
2017-Aug-29 21:53N 47°39' W 003°27'0 0.0
2017-Aug-29 21:18N 47°39' W 003°27'0 0.0
2017-Aug-29 20:56N 47°39' W 003°27'0 0.0
2017-Aug-29 20:29N 47°39' W 003°27'0 0.0
2017-Aug-29 19:56N 47°39' W 003°27'0 0.0
2017-Aug-29 19:29N 47°39' W 003°27'0 0.0
2017-Aug-29 18:59N 47°39' W 003°27'0 0.0
2017-Aug-29 18:29N 47°39' W 003°27'0 0.0
2017-Aug-29 18:00N 47°39' W 003°27'0 0.0
2017-Aug-29 17:30N 47°39' W 003°27'0 0.0
2017-Aug-29 17:00N 47°39' W 003°27'0 0.0
2017-Aug-29 16:29N 47°39' W 003°27'0 0.0
2017-Aug-29 15:59N 47°39' W 003°27'0 0.0
2017-Aug-29 15:29N 47°39' W 003°27'0 0.0
2017-Aug-29 14:59N 47°39' W 003°27'0 0.0
2017-Aug-29 14:29N 47°39' W 003°27'0 0.0
2017-Aug-29 13:59N 47°39' W 003°27'0 0.0
2017-Aug-29 13:29N 47°39' W 003°27'0 0.0
2017-Aug-29 12:58N 47°39' W 003°27'0 0.0
2017-Aug-29 12:30N 47°39' W 003°27'0 0.0
2017-Aug-29 12:00N 47°39' W 003°27'1 2.4
2017-Aug-29 11:30N 47°39' W 003°28'2 4.4
2017-Aug-29 11:00N 47°40' W 003°31'3 5.5
2017-Aug-29 10:30N 47°42' W 003°35'4 7.5
2017-Aug-29 10:00N 47°43' W 003°39'4 8.2
2017-Aug-29 09:30N 47°46' W 003°45'11 0.7
2017-Aug-28 17:10N 47°52' W 003°59'0 0.0
2017-Aug-28 16:57N 47°52' W 003°59'0 0.0
2017-Aug-28 16:30N 47°52' W 003°59'  
2017-Aug-25 01:48N 47°52' W 003°59'0 0.0
2017-Aug-25 01:30N 47°52' W 003°59'0 0.0
2017-Aug-25 00:48N 47°52' W 003°59'0 0.0
2017-Aug-25 00:27N 47°52' W 003°59'0 0.0
2017-Aug-24 23:48N 47°52' W 003°59'2 0.2
2017-Aug-24 14:34N 47°50' W 003°59'15 8.0
2017-Aug-24 12:38N 47°46' W 004°21'14 7.5
2017-Aug-24 10:50N 47°56' W 004°36'3 7.9
2017-Aug-24 10:28N 47°58' W 004°39'6 7.8
2017-Aug-24 09:45N 48°01' W 004°45'2 8.1
2017-Aug-24 09:30N 48°03' W 004°46'5 9.3
2017-Aug-24 09:00N 48°08' W 004°44'5 9.1
2017-Aug-24 08:31N 48°12' W 004°41'4 8.8
2017-Aug-24 08:01N 48°16' W 004°38'5 9.2
2017-Aug-24 07:31N 48°20' W 004°35'4 8.7
2017-Aug-24 07:01N 48°23' W 004°30'0 0.0
2017-Aug-23 12:12N 48°23' W 004°29'0 0.1
2017-Aug-23 12:01N 48°23' W 004°29'2 4.5
2017-Aug-23 11:30N 48°23' W 004°26'2 4.6
2017-Aug-23 11:01N 48°22' W 004°29'4 8.4
2017-Aug-23 10:31N 48°20' W 004°35'3 6.9
2017-Aug-23 10:01N 48°19' W 004°40'4 7.6
2017-Aug-23 09:31N 48°19' W 004°45'5 9.4
2017-Aug-23 09:00N 48°23' W 004°49'5 9.7
2017-Aug-23 08:31N 48°28' W 004°50'5 9.6
2017-Aug-23 08:01N 48°33' W 004°48'5 9.4
2017-Aug-23 07:31N 48°36' W 004°44'6 0.4
2017-Aug-22 14:39N 48°36' W 004°35'1 8.2
2017-Aug-22 14:29N 48°37' W 004°36'2 5.1
2017-Aug-22 14:00N 48°39' W 004°36'39 9.2
2017-Aug-22 09:48N 48°50' W 003°39'311.7
2017-Aug-22 09:30N 48°51' W 003°34'611.5
2017-Aug-22 09:00N 48°52' W 003°25'15 0.7
2017-Aug-21 13:07N 48°50' W 003°03'  

Dump ship's entire track history